Terminal Aerodrome Forecast
Issued by NWS

Home | Current Version | Previous Version | Text Only | Print | Product List | Glossary Off
Versions: 1 2 3 4 5 6 7 8 9 10 11 12 13 14 15

080
FTUS43 KBIS 140521
TAFJMS
TAF
KJMS 140521Z 1406/1506 13005KT P6SM SCT040 SCT150 WS020/16030KT
     FM140800 13006KT P6SM VCSH SCT035 BKN100
     FM141100 12006KT P6SM -RA SCT015 OVC060
     FM141800 09007KT 6SM -RA BKN015 OVC030
     FM142100 35015KT P6SM VCSH SCT010 OVC040
     FM150000 34009KT P6SM SCT035=

USA.gov is the U.S. government's official web portal to all federal, state and local government web resources and services.